sensor_id;sensor_type;location;lat;lon;timestamp;P1;durP1;ratioP1;P2;durP2;ratioP2
1685;SDS011;840;47.980;7.830;2023-03-15T00:01:00;2.60;;;2.40;;
1685;SDS011;840;47.980;7.830;2023-03-15T00:03:30;2.50;;;2.00;;
1685;SDS011;840;47.980;7.830;2023-03-15T00:06:01;1.90;;;1.80;;
1685;SDS011;840;47.980;7.830;2023-03-15T00:08:28;1.40;;;1.30;;
1685;SDS011;840;47.980;7.830;2023-03-15T00:10:57;2.70;;;2.10;;
1685;SDS011;840;47.980;7.830;2023-03-15T00:13:24;2.33;;;2.13;;
1685;SDS011;840;47.980;7.830;2023-03-15T00:15:52;2.97;;;2.10;;
1685;SDS011;840;47.980;7.830;2023-03-15T00:18:22;2.07;;;1.90;;
1685;SDS011;840;47.980;7.830;2023-03-15T00:20:51;2.00;;;1.90;;
1685;SDS011;840;47.980;7.830;2023-03-15T00:23:19;1.57;;;1.47;;
1685;SDS011;840;47.980;7.830;2023-03-15T00:25:47;4.10;;;2.10;;
1685;SDS011;840;47.980;7.830;2023-03-15T00:28:15;2.40;;;1.97;;
1685;SDS011;840;47.980;7.830;2023-03-15T00:30:42;1.50;;;1.43;;
1685;SDS011;840;47.980;7.830;2023-03-15T00:33:10;2.00;;;1.90;;
1685;SDS011;840;47.980;7.830;2023-03-15T00:35:38;4.00;;;2.33;;
1685;SDS011;840;47.980;7.830;2023-03-15T00:38:07;2.40;;;1.97;;
1685;SDS011;840;47.980;7.830;2023-03-15T00:40:34;2.20;;;1.97;;
1685;SDS011;840;47.980;7.830;2023-03-15T00:43:02;2.50;;;2.30;;
1685;SDS011;840;47.980;7.830;2023-03-15T00:45:29;7.40;;;2.70;;
1685;SDS011;840;47.980;7.830;2023-03-15T00:47:56;1.83;;;1.70;;
1685;SDS011;840;47.980;7.830;2023-03-15T00:50:23;3.13;;;2.17;;
1685;SDS011;840;47.980;7.830;2023-03-15T00:52:50;3.77;;;2.20;;
1685;SDS011;840;47.980;7.830;2023-03-15T00:55:19;1.27;;;1.27;;
1685;SDS011;840;47.980;7.830;2023-03-15T00:57:46;2.23;;;2.03;;
1685;SDS011;840;47.980;7.830;2023-03-15T01:00:14;2.83;;;1.83;;
1685;SDS011;840;47.980;7.830;2023-03-15T01:02:44;1.80;;;1.20;;
1685;SDS011;840;47.980;7.830;2023-03-15T01:05:11;1.70;;;1.60;;
1685;SDS011;840;47.980;7.830;2023-03-15T01:07:39;1.73;;;1.63;;
1685;SDS011;840;47.980;7.830;2023-03-15T01:10:06;2.67;;;1.40;;
1685;SDS011;840;47.980;7.830;2023-03-15T01:12:35;1.97;;;1.63;;
1685;SDS011;840;47.980;7.830;2023-03-15T01:15:04;1.40;;;1.30;;
1685;SDS011;840;47.980;7.830;2023-03-15T01:17:47;1.60;;;1.50;;
1685;SDS011;840;47.980;7.830;2023-03-15T01:20:14;1.80;;;1.70;;
1685;SDS011;840;47.980;7.830;2023-03-15T01:22:41;2.40;;;1.80;;
1685;SDS011;840;47.980;7.830;2023-03-15T01:25:08;1.87;;;1.30;;
1685;SDS011;840;47.980;7.830;2023-03-15T01:27:37;1.70;;;1.60;;
1685;SDS011;840;47.980;7.830;2023-03-15T01:30:04;2.60;;;1.60;;
1685;SDS011;840;47.980;7.830;2023-03-15T01:32:32;1.63;;;1.53;;
1685;SDS011;840;47.980;7.830;2023-03-15T01:34:59;1.87;;;1.47;;
1685;SDS011;840;47.980;7.830;2023-03-15T01:37:26;1.63;;;1.53;;
1685;SDS011;840;47.980;7.830;2023-03-15T01:39:53;1.70;;;1.60;;
1685;SDS011;840;47.980;7.830;2023-03-15T01:42:19;1.83;;;1.73;;
1685;SDS011;840;47.980;7.830;2023-03-15T01:44:49;1.87;;;1.70;;
1685;SDS011;840;47.980;7.830;2023-03-15T01:47:18;2.03;;;1.73;;
1685;SDS011;840;47.980;7.830;2023-03-15T01:49:47;1.60;;;1.50;;
1685;SDS011;840;47.980;7.830;2023-03-15T01:52:18;1.40;;;1.30;;
1685;SDS011;840;47.980;7.830;2023-03-15T01:54:48;1.27;;;1.27;;
1685;SDS011;840;47.980;7.830;2023-03-15T01:57:19;1.90;;;1.80;;
1685;SDS011;840;47.980;7.830;2023-03-15T01:59:51;1.43;;;1.33;;
1685;SDS011;840;47.980;7.830;2023-03-15T02:02:20;2.17;;;1.60;;
1685;SDS011;840;47.980;7.830;2023-03-15T02:04:51;1.67;;;1.53;;
1685;SDS011;840;47.980;7.830;2023-03-15T02:07:21;2.13;;;2.00;;
1685;SDS011;840;47.980;7.830;2023-03-15T02:09:52;1.93;;;1.40;;
1685;SDS011;840;47.980;7.830;2023-03-15T02:12:24;1.70;;;1.60;;
1685;SDS011;840;47.980;7.830;2023-03-15T02:14:56;1.90;;;1.73;;
1685;SDS011;840;47.980;7.830;2023-03-15T02:17:27;2.20;;;1.60;;
1685;SDS011;840;47.980;7.830;2023-03-15T02:20:00;1.43;;;1.40;;
1685;SDS011;840;47.980;7.830;2023-03-15T02:22:36;4.23;;;1.67;;
1685;SDS011;840;47.980;7.830;2023-03-15T02:25:13;1.90;;;1.80;;
1685;SDS011;840;47.980;7.830;2023-03-15T02:27:46;1.73;;;1.63;;
1685;SDS011;840;47.980;7.830;2023-03-15T02:30:13;3.70;;;1.50;;
1685;SDS011;840;47.980;7.830;2023-03-15T02:32:40;1.80;;;1.37;;
1685;SDS011;840;47.980;7.830;2023-03-15T02:35:08;1.20;;;1.20;;
1685;SDS011;840;47.980;7.830;2023-03-15T02:37:35;2.67;;;1.80;;
1685;SDS011;840;47.980;7.830;2023-03-15T02:40:05;1.60;;;1.50;;
1685;SDS011;840;47.980;7.830;2023-03-15T02:42:42;1.47;;;1.37;;
1685;SDS011;840;47.980;7.830;2023-03-15T02:45:11;1.83;;;1.60;;
1685;SDS011;840;47.980;7.830;2023-03-15T02:47:38;1.40;;;1.30;;
1685;SDS011;840;47.980;7.830;2023-03-15T02:50:06;1.80;;;1.43;;
1685;SDS011;840;47.980;7.830;2023-03-15T02:52:33;2.93;;;1.40;;
1685;SDS011;840;47.980;7.830;2023-03-15T02:55:00;1.93;;;1.83;;
1685;SDS011;840;47.980;7.830;2023-03-15T02:57:27;2.20;;;1.70;;
1685;SDS011;840;47.980;7.830;2023-03-15T02:59:55;1.33;;;1.23;;
1685;SDS011;840;47.980;7.830;2023-03-15T03:02:23;1.53;;;1.43;;
1685;SDS011;840;47.980;7.830;2023-03-15T03:04:50;2.00;;;1.67;;
1685;SDS011;840;47.980;7.830;2023-03-15T03:07:17;3.47;;;1.80;;
1685;SDS011;840;47.980;7.830;2023-03-15T03:09:44;1.47;;;1.37;;
1685;SDS011;840;47.980;7.830;2023-03-15T03:12:11;1.43;;;1.33;;
1685;SDS011;840;47.980;7.830;2023-03-15T03:14:39;1.40;;;1.30;;
1685;SDS011;840;47.980;7.830;2023-03-15T03:17:07;1.43;;;1.33;;
1685;SDS011;840;47.980;7.830;2023-03-15T03:19:35;1.70;;;1.60;;
1685;SDS011;840;47.980;7.830;2023-03-15T03:22:02;1.30;;;1.30;;
1685;SDS011;840;47.980;7.830;2023-03-15T03:24:30;1.43;;;1.23;;
1685;SDS011;840;47.980;7.830;2023-03-15T03:26:57;2.37;;;1.60;;
1685;SDS011;840;47.980;7.830;2023-03-15T03:29:24;3.37;;;2.03;;
1685;SDS011;840;47.980;7.830;2023-03-15T03:31:52;1.73;;;0.97;;
1685;SDS011;840;47.980;7.830;2023-03-15T03:34:18;1.00;;;1.00;;
1685;SDS011;840;47.980;7.830;2023-03-15T03:36:47;1.43;;;0.90;;
1685;SDS011;840;47.980;7.830;2023-03-15T03:39:13;1.30;;;1.27;;
1685;SDS011;840;47.980;7.830;2023-03-15T03:41:40;1.17;;;1.10;;
1685;SDS011;840;47.980;7.830;2023-03-15T03:44:07;3.53;;;1.03;;
1685;SDS011;840;47.980;7.830;2023-03-15T03:46:34;2.40;;;1.47;;
1685;SDS011;840;47.980;7.830;2023-03-15T03:49:01;0.97;;;0.97;;
1685;SDS011;840;47.980;7.830;2023-03-15T03:51:28;1.60;;;1.10;;
1685;SDS011;840;47.980;7.830;2023-03-15T03:53:59;1.50;;;1.40;;
1685;SDS011;840;47.980;7.830;2023-03-15T03:56:26;2.03;;;1.10;;
1685;SDS011;840;47.980;7.830;2023-03-15T03:58:53;1.37;;;1.00;;
1685;SDS011;840;47.980;7.830;2023-03-15T04:01:20;4.20;;;1.00;;
1685;SDS011;840;47.980;7.830;2023-03-15T04:03:47;3.00;;;1.93;;
1685;SDS011;840;47.980;7.830;2023-03-15T04:06:14;1.00;;;0.97;;
1685;SDS011;840;47.980;7.830;2023-03-15T04:08:41;0.90;;;0.90;;
1685;SDS011;840;47.980;7.830;2023-03-15T04:11:09;1.63;;;1.53;;
1685;SDS011;840;47.980;7.830;2023-03-15T04:13:36;1.00;;;1.00;;
1685;SDS011;840;47.980;7.830;2023-03-15T04:16:03;3.90;;;1.30;;
1685;SDS011;840;47.980;7.830;2023-03-15T04:18:31;4.10;;;1.00;;
1685;SDS011;840;47.980;7.830;2023-03-15T04:20:58;0.97;;;0.97;;
1685;SDS011;840;47.980;7.830;2023-03-15T04:23:25;1.00;;;0.90;;
1685;SDS011;840;47.980;7.830;2023-03-15T04:25:52;1.53;;;1.13;;
1685;SDS011;840;47.980;7.830;2023-03-15T04:28:23;3.13;;;1.50;;
1685;SDS011;840;47.980;7.830;2023-03-15T04:30:50;1.33;;;1.13;;
1685;SDS011;840;47.980;7.830;2023-03-15T04:33:22;4.77;;;1.37;;
1685;SDS011;840;47.980;7.830;2023-03-15T04:35:49;1.70;;;1.10;;
1685;SDS011;840;47.980;7.830;2023-03-15T04:38:16;0.97;;;0.97;;
1685;SDS011;840;47.980;7.830;2023-03-15T04:40:44;1.30;;;1.20;;
1685;SDS011;840;47.980;7.830;2023-03-15T04:43:11;2.77;;;1.13;;
1685;SDS011;840;47.980;7.830;2023-03-15T04:45:39;1.83;;;1.13;;
1685;SDS011;840;47.980;7.830;2023-03-15T04:48:06;3.00;;;1.40;;
1685;SDS011;840;47.980;7.830;2023-03-15T04:50:33;3.13;;;1.20;;
1685;SDS011;840;47.980;7.830;2023-03-15T04:53:00;2.00;;;1.20;;
1685;SDS011;840;47.980;7.830;2023-03-15T04:55:27;2.27;;;1.43;;
1685;SDS011;840;47.980;7.830;2023-03-15T04:57:53;1.87;;;1.53;;
1685;SDS011;840;47.980;7.830;2023-03-15T05:00:22;3.83;;;1.47;;
1685;SDS011;840;47.980;7.830;2023-03-15T05:02:50;1.97;;;1.67;;
1685;SDS011;840;47.980;7.830;2023-03-15T05:05:18;1.93;;;1.60;;
1685;SDS011;840;47.980;7.830;2023-03-15T05:07:46;1.73;;;1.60;;
1685;SDS011;840;47.980;7.830;2023-03-15T05:10:16;5.37;;;1.70;;
1685;SDS011;840;47.980;7.830;2023-03-15T05:12:43;1.50;;;1.40;;
1685;SDS011;840;47.980;7.830;2023-03-15T05:15:10;5.53;;;2.50;;
1685;SDS011;840;47.980;7.830;2023-03-15T05:17:37;1.93;;;1.10;;
1685;SDS011;840;47.980;7.830;2023-03-15T05:20:07;1.43;;;0.90;;
1685;SDS011;840;47.980;7.830;2023-03-15T05:22:36;3.67;;;1.20;;
1685;SDS011;840;47.980;7.830;2023-03-15T05:25:03;4.60;;;2.43;;
1685;SDS011;840;47.980;7.830;2023-03-15T05:27:30;7.60;;;2.20;;
1685;SDS011;840;47.980;7.830;2023-03-15T05:29:58;2.60;;;1.60;;
1685;SDS011;840;47.980;7.830;2023-03-15T05:32:27;2.87;;;1.70;;
1685;SDS011;840;47.980;7.830;2023-03-15T05:34:58;3.80;;;1.70;;
1685;SDS011;840;47.980;7.830;2023-03-15T05:37:27;4.87;;;2.30;;
1685;SDS011;840;47.980;7.830;2023-03-15T05:39:54;1.93;;;1.77;;
1685;SDS011;840;47.980;7.830;2023-03-15T05:42:21;1.53;;;1.40;;
1685;SDS011;840;47.980;7.830;2023-03-15T05:44:50;3.90;;;1.47;;
1685;SDS011;840;47.980;7.830;2023-03-15T05:47:17;6.67;;;2.00;;
1685;SDS011;840;47.980;7.830;2023-03-15T05:49:44;3.13;;;1.50;;
1685;SDS011;840;47.980;7.830;2023-03-15T05:52:12;3.27;;;1.33;;
1685;SDS011;840;47.980;7.830;2023-03-15T05:54:40;2.53;;;1.63;;
1685;SDS011;840;47.980;7.830;2023-03-15T05:57:07;2.33;;;1.57;;
1685;SDS011;840;47.980;7.830;2023-03-15T05:59:35;2.97;;;1.47;;
1685;SDS011;840;47.980;7.830;2023-03-15T06:02:02;2.33;;;1.43;;
1685;SDS011;840;47.980;7.830;2023-03-15T06:04:29;1.20;;;1.10;;
1685;SDS011;840;47.980;7.830;2023-03-15T06:06:56;2.73;;;1.30;;
1685;SDS011;840;47.980;7.830;2023-03-15T06:09:23;3.20;;;1.47;;
1685;SDS011;840;47.980;7.830;2023-03-15T06:11:52;1.90;;;1.63;;
1685;SDS011;840;47.980;7.830;2023-03-15T06:14:19;3.13;;;1.23;;
1685;SDS011;840;47.980;7.830;2023-03-15T06:16:46;3.70;;;1.63;;
1685;SDS011;840;47.980;7.830;2023-03-15T06:19:13;1.60;;;1.37;;
1685;SDS011;840;47.980;7.830;2023-03-15T06:21:39;3.13;;;1.47;;
1685;SDS011;840;47.980;7.830;2023-03-15T06:24:06;2.60;;;1.40;;
1685;SDS011;840;47.980;7.830;2023-03-15T06:26:33;3.27;;;1.40;;
1685;SDS011;840;47.980;7.830;2023-03-15T06:29:02;2.60;;;1.60;;
1685;SDS011;840;47.980;7.830;2023-03-15T06:31:29;2.37;;;1.80;;
1685;SDS011;840;47.980;7.830;2023-03-15T06:33:57;1.47;;;1.37;;
1685;SDS011;840;47.980;7.830;2023-03-15T06:36:26;3.70;;;1.77;;
1685;SDS011;840;47.980;7.830;2023-03-15T06:38:53;3.10;;;1.80;;
1685;SDS011;840;47.980;7.830;2023-03-15T06:41:20;3.60;;;2.03;;
1685;SDS011;840;47.980;7.830;2023-03-15T06:43:47;2.33;;;1.83;;
1685;SDS011;840;47.980;7.830;2023-03-15T06:46:15;8.87;;;2.60;;
1685;SDS011;840;47.980;7.830;2023-03-15T06:48:42;3.40;;;2.07;;
1685;SDS011;840;47.980;7.830;2023-03-15T06:51:09;1.83;;;1.73;;
1685;SDS011;840;47.980;7.830;2023-03-15T06:53:36;2.50;;;1.83;;
1685;SDS011;840;47.980;7.830;2023-03-15T06:56:03;3.50;;;1.57;;
1685;SDS011;840;47.980;7.830;2023-03-15T06:58:30;2.53;;;1.43;;
1685;SDS011;840;47.980;7.830;2023-03-15T07:00:57;2.37;;;1.80;;
1685;SDS011;840;47.980;7.830;2023-03-15T07:03:25;1.43;;;1.33;;
1685;SDS011;840;47.980;7.830;2023-03-15T07:05:52;3.50;;;1.50;;
1685;SDS011;840;47.980;7.830;2023-03-15T07:08:19;3.73;;;1.80;;
1685;SDS011;840;47.980;7.830;2023-03-15T07:10:47;2.43;;;1.43;;
1685;SDS011;840;47.980;7.830;2023-03-15T07:13:14;1.53;;;1.43;;
1685;SDS011;840;47.980;7.830;2023-03-15T07:15:44;2.17;;;1.43;;
1685;SDS011;840;47.980;7.830;2023-03-15T07:18:11;1.63;;;1.53;;
1685;SDS011;840;47.980;7.830;2023-03-15T07:20:40;3.50;;;1.70;;
1685;SDS011;840;47.980;7.830;2023-03-15T07:23:06;2.17;;;1.57;;
1685;SDS011;840;47.980;7.830;2023-03-15T07:25:33;4.63;;;2.03;;
1685;SDS011;840;47.980;7.830;2023-03-15T07:28:00;2.93;;;1.70;;
1685;SDS011;840;47.980;7.830;2023-03-15T07:30:27;3.13;;;2.80;;
1685;SDS011;840;47.980;7.830;2023-03-15T07:32:54;2.40;;;2.03;;
1685;SDS011;840;47.980;7.830;2023-03-15T07:35:21;2.77;;;2.10;;
1685;SDS011;840;47.980;7.830;2023-03-15T07:37:49;5.70;;;2.50;;
1685;SDS011;840;47.980;7.830;2023-03-15T07:40:16;2.83;;;2.07;;
1685;SDS011;840;47.980;7.830;2023-03-15T07:42:43;3.13;;;2.83;;
1685;SDS011;840;47.980;7.830;2023-03-15T07:45:10;4.10;;;2.40;;
1685;SDS011;840;47.980;7.830;2023-03-15T07:47:38;3.00;;;2.50;;
1685;SDS011;840;47.980;7.830;2023-03-15T07:50:05;2.67;;;2.40;;
1685;SDS011;840;47.980;7.830;2023-03-15T07:52:32;3.30;;;3.00;;
1685;SDS011;840;47.980;7.830;2023-03-15T07:55:01;2.43;;;2.23;;
1685;SDS011;840;47.980;7.830;2023-03-15T07:57:28;5.70;;;2.67;;
1685;SDS011;840;47.980;7.830;2023-03-15T07:59:56;2.40;;;2.30;;
1685;SDS011;840;47.980;7.830;2023-03-15T08:02:23;2.40;;;1.80;;
1685;SDS011;840;47.980;7.830;2023-03-15T08:04:50;2.20;;;2.03;;
1685;SDS011;840;47.980;7.830;2023-03-15T08:07:17;4.03;;;2.40;;
1685;SDS011;840;47.980;7.830;2023-03-15T08:09:44;5.17;;;1.60;;
1685;SDS011;840;47.980;7.830;2023-03-15T08:12:14;3.90;;;2.17;;
1685;SDS011;840;47.980;7.830;2023-03-15T08:14:41;1.90;;;1.80;;
1685;SDS011;840;47.980;7.830;2023-03-15T08:17:08;1.40;;;1.30;;
1685;SDS011;840;47.980;7.830;2023-03-15T08:19:37;8.63;;;2.53;;
1685;SDS011;840;47.980;7.830;2023-03-15T08:22:05;4.93;;;2.40;;
1685;SDS011;840;47.980;7.830;2023-03-15T08:24:32;1.50;;;1.40;;
1685;SDS011;840;47.980;7.830;2023-03-15T08:27:04;1.50;;;1.40;;
1685;SDS011;840;47.980;7.830;2023-03-15T08:29:34;2.27;;;2.17;;
1685;SDS011;840;47.980;7.830;2023-03-15T08:32:01;2.30;;;1.40;;
1685;SDS011;840;47.980;7.830;2023-03-15T08:34:29;2.47;;;1.67;;
1685;SDS011;840;47.980;7.830;2023-03-15T08:36:56;1.63;;;1.53;;
1685;SDS011;840;47.980;7.830;2023-03-15T08:39:23;2.17;;;1.97;;
1685;SDS011;840;47.980;7.830;2023-03-15T08:41:50;1.63;;;1.50;;
1685;SDS011;840;47.980;7.830;2023-03-15T08:44:17;1.83;;;1.73;;
1685;SDS011;840;47.980;7.830;2023-03-15T08:46:45;1.73;;;1.63;;
1685;SDS011;840;47.980;7.830;2023-03-15T08:49:12;2.10;;;1.73;;
1685;SDS011;840;47.980;7.830;2023-03-15T08:51:39;1.50;;;1.30;;
1685;SDS011;840;47.980;7.830;2023-03-15T08:54:06;1.83;;;1.10;;
1685;SDS011;840;47.980;7.830;2023-03-15T08:56:33;1.30;;;1.20;;
1685;SDS011;840;47.980;7.830;2023-03-15T08:59:00;1.03;;;0.93;;
1685;SDS011;840;47.980;7.830;2023-03-15T09:01:27;3.00;;;1.03;;
1685;SDS011;840;47.980;7.830;2023-03-15T09:03:56;1.37;;;1.27;;
1685;SDS011;840;47.980;7.830;2023-03-15T09:06:23;4.00;;;1.00;;
1685;SDS011;840;47.980;7.830;2023-03-15T09:08:50;0.73;;;0.73;;
1685;SDS011;840;47.980;7.830;2023-03-15T09:11:18;1.00;;;1.00;;
1685;SDS011;840;47.980;7.830;2023-03-15T09:13:45;1.43;;;0.90;;
1685;SDS011;840;47.980;7.830;2023-03-15T09:16:12;0.83;;;0.83;;
1685;SDS011;840;47.980;7.830;2023-03-15T09:18:39;1.20;;;1.10;;
1685;SDS011;840;47.980;7.830;2023-03-15T09:21:13;1.47;;;1.37;;
1685;SDS011;840;47.980;7.830;2023-03-15T09:23:40;0.80;;;0.80;;
1685;SDS011;840;47.980;7.830;2023-03-15T09:26:07;1.33;;;0.87;;
1685;SDS011;840;47.980;7.830;2023-03-15T09:28:34;1.13;;;0.80;;
1685;SDS011;840;47.980;7.830;2023-03-15T09:31:02;1.03;;;0.70;;
1685;SDS011;840;47.980;7.830;2023-03-15T09:33:32;1.40;;;0.57;;
1685;SDS011;840;47.980;7.830;2023-03-15T09:35:59;1.03;;;0.70;;
1685;SDS011;840;47.980;7.830;2023-03-15T09:38:27;0.87;;;0.63;;
1685;SDS011;840;47.980;7.830;2023-03-15T09:40:55;0.80;;;0.80;;
1685;SDS011;840;47.980;7.830;2023-03-15T09:43:38;1.13;;;0.63;;
1685;SDS011;840;47.980;7.830;2023-03-15T09:46:23;1.33;;;0.93;;
1685;SDS011;840;47.980;7.830;2023-03-15T09:48:55;0.60;;;0.60;;
1685;SDS011;840;47.980;7.830;2023-03-15T09:51:28;0.70;;;0.70;;
1685;SDS011;840;47.980;7.830;2023-03-15T09:54:03;1.00;;;0.80;;
1685;SDS011;840;47.980;7.830;2023-03-15T09:56:35;1.20;;;1.00;;
1685;SDS011;840;47.980;7.830;2023-03-15T09:59:05;1.43;;;0.90;;
1685;SDS011;840;47.980;7.830;2023-03-15T10:01:33;1.23;;;0.70;;
1685;SDS011;840;47.980;7.830;2023-03-15T10:04:04;1.00;;;0.90;;
1685;SDS011;840;47.980;7.830;2023-03-15T10:06:37;1.07;;;1.00;;
1685;SDS011;840;47.980;7.830;2023-03-15T10:09:12;1.30;;;1.20;;
1685;SDS011;840;47.980;7.830;2023-03-15T10:11:45;0.90;;;0.90;;
1685;SDS011;840;47.980;7.830;2023-03-15T10:14:18;0.60;;;0.60;;
1685;SDS011;840;47.980;7.830;2023-03-15T10:16:52;0.97;;;0.97;;
1685;SDS011;840;47.980;7.830;2023-03-15T10:19:24;1.30;;;1.20;;
1685;SDS011;840;47.980;7.830;2023-03-15T10:21:56;1.90;;;1.00;;
1685;SDS011;840;47.980;7.830;2023-03-15T10:24:30;0.70;;;0.70;;
1685;SDS011;840;47.980;7.830;2023-03-15T10:27:08;1.07;;;0.97;;
1685;SDS011;840;47.980;7.830;2023-03-15T10:29:40;1.30;;;0.97;;
1685;SDS011;840;47.980;7.830;2023-03-15T10:32:10;1.80;;;0.87;;
1685;SDS011;840;47.980;7.830;2023-03-15T10:34:42;1.13;;;1.07;;
1685;SDS011;840;47.980;7.830;2023-03-15T10:37:26;1.40;;;1.17;;
1685;SDS011;840;47.980;7.830;2023-03-15T10:39:55;2.17;;;1.40;;
1685;SDS011;840;47.980;7.830;2023-03-15T10:42:24;2.20;;;1.03;;
1685;SDS011;840;47.980;7.830;2023-03-15T10:44:52;1.90;;;1.17;;
1685;SDS011;840;47.980;7.830;2023-03-15T10:47:20;1.27;;;1.20;;
1685;SDS011;840;47.980;7.830;2023-03-15T10:49:47;1.07;;;0.97;;
1685;SDS011;840;47.980;7.830;2023-03-15T10:52:28;1.07;;;1.07;;
1685;SDS011;840;47.980;7.830;2023-03-15T10:55:01;1.40;;;1.30;;
1685;SDS011;840;47.980;7.830;2023-03-15T10:57:36;1.00;;;1.00;;
1685;SDS011;840;47.980;7.830;2023-03-15T11:00:07;2.30;;;1.13;;
1685;SDS011;840;47.980;7.830;2023-03-15T11:02:51;1.90;;;1.13;;
1685;SDS011;840;47.980;7.830;2023-03-15T11:05:28;3.17;;;1.53;;
1685;SDS011;840;47.980;7.830;2023-03-15T11:07:57;1.23;;;1.03;;
1685;SDS011;840;47.980;7.830;2023-03-15T11:10:27;4.53;;;0.90;;
1685;SDS011;840;47.980;7.830;2023-03-15T11:13:08;1.00;;;0.90;;
1685;SDS011;840;47.980;7.830;2023-03-15T11:15:37;1.17;;;1.17;;
1685;SDS011;840;47.980;7.830;2023-03-15T11:18:05;1.50;;;1.40;;
1685;SDS011;840;47.980;7.830;2023-03-15T11:20:33;1.27;;;1.17;;
1685;SDS011;840;47.980;7.830;2023-03-15T11:23:05;1.93;;;1.10;;
1685;SDS011;840;47.980;7.830;2023-03-15T11:25:42;1.20;;;1.10;;
1685;SDS011;840;47.980;7.830;2023-03-15T11:28:13;3.10;;;0.90;;
1685;SDS011;840;47.980;7.830;2023-03-15T11:30:43;1.13;;;0.80;;
1685;SDS011;840;47.980;7.830;2023-03-15T11:33:13;2.70;;;1.00;;
1685;SDS011;840;47.980;7.830;2023-03-15T11:35:53;1.20;;;1.03;;
1685;SDS011;840;47.980;7.830;2023-03-15T11:38:24;0.77;;;0.77;;
1685;SDS011;840;47.980;7.830;2023-03-15T11:40:58;1.60;;;0.70;;
1685;SDS011;840;47.980;7.830;2023-03-15T11:43:28;1.03;;;0.73;;
1685;SDS011;840;47.980;7.830;2023-03-15T11:46:03;1.53;;;1.10;;
1685;SDS011;840;47.980;7.830;2023-03-15T11:48:36;1.10;;;1.00;;
1685;SDS011;840;47.980;7.830;2023-03-15T11:51:07;1.63;;;0.70;;
1685;SDS011;840;47.980;7.830;2023-03-15T11:53:39;0.60;;;0.60;;
1685;SDS011;840;47.980;7.830;2023-03-15T11:56:20;1.00;;;0.90;;
1685;SDS011;840;47.980;7.830;2023-03-15T11:58:59;0.60;;;0.60;;
1685;SDS011;840;47.980;7.830;2023-03-15T12:01:30;0.73;;;0.73;;
1685;SDS011;840;47.980;7.830;2023-03-15T12:07:30;0.63;;;0.63;;
1685;SDS011;840;47.980;7.830;2023-03-15T12:10:18;0.67;;;0.63;;
1685;SDS011;840;47.980;7.830;2023-03-15T12:12:58;1.20;;;1.13;;
1685;SDS011;840;47.980;7.830;2023-03-15T12:15:42;1.10;;;1.00;;
1685;SDS011;840;47.980;7.830;2023-03-15T12:18:12;1.13;;;1.03;;
1685;SDS011;840;47.980;7.830;2023-03-15T12:20:44;0.80;;;0.80;;
1685;SDS011;840;47.980;7.830;2023-03-15T12:23:30;0.60;;;0.57;;
1685;SDS011;840;47.980;7.830;2023-03-15T12:26:04;1.00;;;0.90;;
1685;SDS011;840;47.980;7.830;2023-03-15T12:28:36;1.00;;;0.87;;
1685;SDS011;840;47.980;7.830;2023-03-15T12:31:04;1.60;;;0.57;;
1685;SDS011;840;47.980;7.830;2023-03-15T12:33:42;1.00;;;0.90;;
1685;SDS011;840;47.980;7.830;2023-03-15T12:36:14;0.83;;;0.67;;
1685;SDS011;840;47.980;7.830;2023-03-15T12:38:52;0.77;;;0.77;;
1685;SDS011;840;47.980;7.830;2023-03-15T12:41:34;0.70;;;0.60;;
1685;SDS011;840;47.980;7.830;2023-03-15T12:44:17;0.97;;;0.87;;
1685;SDS011;840;47.980;7.830;2023-03-15T12:47:02;1.13;;;0.90;;
1685;SDS011;840;47.980;7.830;2023-03-15T12:49:31;1.00;;;0.90;;
1685;SDS011;840;47.980;7.830;2023-03-15T12:52:01;2.00;;;0.97;;
1685;SDS011;840;47.980;7.830;2023-03-15T12:54:32;1.03;;;1.03;;
1685;SDS011;840;47.980;7.830;2023-03-15T12:57:04;0.80;;;0.70;;
1685;SDS011;840;47.980;7.830;2023-03-15T12:59:35;1.17;;;1.00;;
1685;SDS011;840;47.980;7.830;2023-03-15T13:02:14;0.97;;;0.60;;
1685;SDS011;840;47.980;7.830;2023-03-15T13:04:55;1.93;;;0.70;;
1685;SDS011;840;47.980;7.830;2023-03-15T13:07:27;0.60;;;0.60;;
1685;SDS011;840;47.980;7.830;2023-03-15T13:13:11;0.80;;;0.80;;
1685;SDS011;840;47.980;7.830;2023-03-15T13:15:48;1.50;;;0.73;;
1685;SDS011;840;47.980;7.830;2023-03-15T13:18:27;2.70;;;0.60;;
1685;SDS011;840;47.980;7.830;2023-03-15T13:21:02;0.70;;;0.67;;
1685;SDS011;840;47.980;7.830;2023-03-15T13:23:36;1.90;;;0.83;;
1685;SDS011;840;47.980;7.830;2023-03-15T13:26:07;0.90;;;0.60;;
1685;SDS011;840;47.980;7.830;2023-03-15T13:28:55;2.20;;;0.80;;
1685;SDS011;840;47.980;7.830;2023-03-15T13:31:27;3.23;;;1.00;;
1685;SDS011;840;47.980;7.830;2023-03-15T13:33:55;0.50;;;0.50;;
1685;SDS011;840;47.980;7.830;2023-03-15T13:36:25;2.30;;;0.80;;
1685;SDS011;840;47.980;7.830;2023-03-15T13:38:54;0.93;;;0.60;;
1685;SDS011;840;47.980;7.830;2023-03-15T13:41:23;0.60;;;0.60;;
1685;SDS011;840;47.980;7.830;2023-03-15T13:43:51;2.00;;;0.80;;
1685;SDS011;840;47.980;7.830;2023-03-15T13:46:20;1.57;;;0.90;;
1685;SDS011;840;47.980;7.830;2023-03-15T13:48:51;0.63;;;0.63;;
1685;SDS011;840;47.980;7.830;2023-03-15T13:51:19;1.27;;;0.70;;
1685;SDS011;840;47.980;7.830;2023-03-15T13:53:49;1.40;;;1.30;;
1685;SDS011;840;47.980;7.830;2023-03-15T13:56:19;1.70;;;1.03;;
1685;SDS011;840;47.980;7.830;2023-03-15T13:58:52;1.13;;;0.70;;
1685;SDS011;840;47.980;7.830;2023-03-15T14:01:19;1.90;;;0.67;;
1685;SDS011;840;47.980;7.830;2023-03-15T14:03:51;1.60;;;0.60;;
1685;SDS011;840;47.980;7.830;2023-03-15T14:06:23;0.60;;;0.60;;
1685;SDS011;840;47.980;7.830;2023-03-15T14:08:52;1.30;;;0.80;;
1685;SDS011;840;47.980;7.830;2023-03-15T14:11:33;0.80;;;0.47;;
1685;SDS011;840;47.980;7.830;2023-03-15T14:14:01;1.17;;;1.07;;
1685;SDS011;840;47.980;7.830;2023-03-15T14:16:45;0.97;;;0.97;;
1685;SDS011;840;47.980;7.830;2023-03-15T14:19:15;0.87;;;0.80;;
1685;SDS011;840;47.980;7.830;2023-03-15T14:21:43;1.35;;;0.77;;
1685;SDS011;840;47.980;7.830;2023-03-15T14:24:14;1.35;;;0.80;;
1685;SDS011;840;47.980;7.830;2023-03-15T14:26:43;0.90;;;0.87;;
1685;SDS011;840;47.980;7.830;2023-03-15T14:29:16;1.30;;;0.70;;
1685;SDS011;840;47.980;7.830;2023-03-15T14:31:48;1.60;;;0.90;;
1685;SDS011;840;47.980;7.830;2023-03-15T14:34:19;0.70;;;0.70;;
1685;SDS011;840;47.980;7.830;2023-03-15T14:36:50;2.40;;;0.90;;
1685;SDS011;840;47.980;7.830;2023-03-15T14:39:23;2.70;;;0.93;;
1685;SDS011;840;47.980;7.830;2023-03-15T14:41:52;1.13;;;0.97;;
1685;SDS011;840;47.980;7.830;2023-03-15T14:44:19;1.27;;;0.90;;
1685;SDS011;840;47.980;7.830;2023-03-15T14:46:46;2.10;;;0.70;;
1685;SDS011;840;47.980;7.830;2023-03-15T14:49:16;0.50;;;0.43;;
1685;SDS011;840;47.980;7.830;2023-03-15T14:52:18;0.50;;;0.47;;
1685;SDS011;840;47.980;7.830;2023-03-15T14:54:45;0.50;;;0.50;;
1685;SDS011;840;47.980;7.830;2023-03-15T14:57:14;0.83;;;0.83;;
1685;SDS011;840;47.980;7.830;2023-03-15T14:59:41;2.53;;;0.40;;
1685;SDS011;840;47.980;7.830;2023-03-15T15:02:08;0.67;;;0.57;;
1685;SDS011;840;47.980;7.830;2023-03-15T15:04:40;1.13;;;0.80;;
1685;SDS011;840;47.980;7.830;2023-03-15T15:07:08;0.97;;;0.60;;
1685;SDS011;840;47.980;7.830;2023-03-15T15:09:37;0.93;;;0.60;;
1685;SDS011;840;47.980;7.830;2023-03-15T15:12:10;0.82;;;0.60;;
1685;SDS011;840;47.980;7.830;2023-03-15T15:14:37;0.60;;;0.40;;
1685;SDS011;840;47.980;7.830;2023-03-15T15:17:06;0.80;;;0.80;;
1685;SDS011;840;47.980;7.830;2023-03-15T15:19:34;1.63;;;0.43;;
1685;SDS011;840;47.980;7.830;2023-03-15T15:22:01;1.40;;;0.40;;
1685;SDS011;840;47.980;7.830;2023-03-15T15:24:29;0.60;;;0.40;;
1685;SDS011;840;47.980;7.830;2023-03-15T15:26:58;0.50;;;0.50;;
1685;SDS011;840;47.980;7.830;2023-03-15T15:29:25;0.70;;;0.40;;
1685;SDS011;840;47.980;7.830;2023-03-15T15:31:52;0.50;;;0.40;;
1685;SDS011;840;47.980;7.830;2023-03-15T15:34:19;0.80;;;0.43;;
1685;SDS011;840;47.980;7.830;2023-03-15T15:36:46;1.33;;;0.60;;
1685;SDS011;840;47.980;7.830;2023-03-15T15:39:15;1.40;;;0.80;;
1685;SDS011;840;47.980;7.830;2023-03-15T15:41:46;0.50;;;0.40;;
1685;SDS011;840;47.980;7.830;2023-03-15T15:44:15;1.37;;;0.70;;
1685;SDS011;840;47.980;7.830;2023-03-15T15:46:44;1.03;;;0.60;;
1685;SDS011;840;47.980;7.830;2023-03-15T15:49:10;0.80;;;0.50;;
1685;SDS011;840;47.980;7.830;2023-03-15T15:51:37;0.75;;;0.60;;